Duluth, GA

2:12 PM EST en Enero 31, 2015 (GMT -0500)
Gravitt Area, Duluth, GA | Change Station
CLOSE
Current Station
Estación meteorológica personal
Location: Duluth, GA
Altura: 951 ft
Estaciones meteorológicas cercanas

Alt 951 ft 33.96 °N, 84.16 °W | Updated 3 seconds ago

Parcialmente nublado
Parcialmente nublado
49.4 ° F
Sensación térmica 49 ° F
N
1.2
Viento Variable Viento desde SSO
Gusts 1.2 mph

Hoy
Alta -- | Baja -- ° F
--% Posibilidad de precipitaciones
Ayer
Alta -- | Baja -- ° F
Precip. -- pul
7:34 AM 6:06 PM
Gibosa creciente, 91% visible
Presión 30.35 pul
Visibilidad 10.0 Millas
Nubes Despejado
Vientos helados 49 ° F
Punto de rocío 19 ° F
Humedad 30%
Precipitaciones 0.00 pul
Espesor de la nieve No disponible.
UV 4 de una escala de 12
Polen 3.70 de una escala de 12
Calidad del aire No disponible.
Flu Activity No disponible.
METAR KPDK 311853Z 00000KT 10SM CLR 10/M08 A3031 RMK AO2 SLP275 T01001083

More Conditions Fewer Conditions

Presión 30.35 pul
Visibilidad 10.0 Millas
Nubes Despejado
Vientos helados 49 ° F
Punto de rocío 19 ° F
Humedad 30%
Precipitaciones 0.00 pul
Espesor de la nieve No disponible.
UV 4 de una escala de 12
Polen 3.70 de una escala de 12
Calidad del aire No disponible.
Flu Activity No disponible.
METAR KPDK 311853Z 00000KT 10SM CLR 10/M08 A3031 RMK AO2 SLP275 T01001083

More Conditions Fewer Conditions

10-Day Weather Forecast

Almanac

Astronomía

Jan. 31, 2015 Salida Puesta
Hora real
Crepúsculo civil
Crepúsculo náutico
Crepúsculo astronómico
Luna
Horas de luz
Horas de luz
Tomorrow will be .
, % of the Moon is Illuminated

Extremos de hoy

Máximos del estado Bajos del estado

Community

WunderPhotos

Upload Photos

1,792,154 ¡fotos cargadas!

WunderBlogs® & News

Nearby

Calidad del aire

  Calidad del aire Índice AQ Contaminante
Not available.

Grosos de nieve

Estación Profundido Altura

Actividad de terremotos

Ciudad Distance Mag. Tiempo y dato
Magnitud mínima muestra es 2,5.

Temperaturas de aguas costeras

Lugar Temperatura

Estaciones meteorológicas cercanas